Time;durP1;ratioP1;P1;durP2;ratioP2;P2;SDS_P1;SDS_P2;PMS_P1;PMS_P2;Temp;Humidity;BMP_temperature;BMP_pressure;BME280_temperature;BME280_humidity;BME280_pressure;Samples;Min_cycle;Max_cycle;Signal;HPM_P1;HPM_P2
2021/09/03 00:01:24;;;;;;;;;;;13.40;1.00;;;;;;5029388;28;19916;-64
2021/09/03 00:03:49;;;;;;;;;;;13.40;1.00;;;;;;5027696;28;20358;-63
2021/09/03 00:06:15;;;;;;;;;;;13.40;1.00;;;;;;5028939;28;20021;-62
2021/09/03 00:08:40;;;;;;;;;;;13.30;1.00;;;;;;5028189;28;19917;-63
2021/09/03 00:11:06;;;;;;;;;;;13.30;1.00;;;;;;5028620;28;19944;-63
2021/09/03 00:13:31;;;;;;;;;;;13.30;1.00;;;;;;5027746;28;20278;-63
2021/09/03 00:15:57;;;;;;;;;;;13.30;1.00;;;;;;5028651;28;20365;-63
2021/09/03 00:18:23;;;;;;;;;;;13.30;1.00;;;;;;5027959;28;20025;-63
2021/09/03 00:20:48;;;;;;;;;;;13.20;1.00;;;;;;5028261;28;19909;-64
2021/09/03 00:23:14;;;;;;;;;;;13.20;1.00;;;;;;5026828;28;19913;-64
2021/09/03 00:25:39;;;;;;;;;;;13.20;1.00;;;;;;5028577;28;20283;-63
2021/09/03 00:28:05;;;;;;;;;;;13.20;1.00;;;;;;5028487;28;19909;-62
2021/09/03 00:30:31;;;;;;;;;;;13.10;1.00;;;;;;5028857;28;19963;-63
2021/09/03 00:32:56;;;;;;;;;;;13.10;1.00;;;;;;5027473;28;19913;-64
2021/09/03 00:35:21;;;;;;;;;;;13.20;1.00;;;;;;5028764;28;19967;-63
2021/09/03 00:37:47;;;;;;;;;;;13.10;1.00;;;;;;5027499;28;19920;-62
2021/09/03 00:40:13;;;;;;;;;;;13.10;1.00;;;;;;5029010;28;19916;-63
2021/09/03 00:42:38;;;;;;;;;;;13.10;1.00;;;;;;5027698;28;19920;-63
2021/09/03 00:45:04;;;;;;;;;;;13.00;1.00;;;;;;5028564;28;19909;-64
2021/09/03 00:47:30;;;;;;;;;;;12.90;1.00;;;;;;5028109;28;19999;-64
2021/09/03 00:49:55;;;;;;;;;;;12.90;1.00;;;;;;5028514;28;19915;-64
2021/09/03 00:52:21;;;;;;;;;;;12.90;1.00;;;;;;5026944;28;19913;-64
2021/09/03 00:54:47;;;;;;;;;;;13.00;1.00;;;;;;5027467;28;19917;-63
2021/09/03 00:57:13;;;;;;;;;;;12.90;1.00;;;;;;5028092;28;20287;-64
2021/09/03 00:59:38;;;;;;;;;;;12.90;1.00;;;;;;5028686;28;19947;-62
2021/09/03 01:02:04;;;;;;;;;;;12.80;1.00;;;;;;5027057;28;19916;-63
2021/09/03 01:04:29;;;;;;;;;;;12.80;1.00;;;;;;5027956;28;19921;-63
2021/09/03 01:06:55;;;;;;;;;;;12.80;1.00;;;;;;5053389;22;19997;-63
2021/09/03 01:09:20;;;;;;;;;;;12.70;1.00;;;;;;5087884;28;19924;-66
2021/09/03 01:11:46;;;;;;;;;;;12.70;1.00;;;;;;5088331;28;19924;-66
2021/09/03 01:14:12;;;;;;;;;;;12.70;1.00;;;;;;5086605;28;20436;-66
2021/09/03 01:16:37;;;;;;;;;;;12.60;1.00;;;;;;5089281;28;19908;-66
2021/09/03 01:19:03;;;;;;;;;;;12.60;1.00;;;;;;5107207;28;19912;-66
2021/09/03 01:21:29;;;;;;;;;;;12.60;1.00;;;;;;5109417;28;19908;-66
2021/09/03 01:23:54;;;;;;;;;;;12.50;1.00;;;;;;5107441;28;19950;-66
2021/09/03 01:26:20;;;;;;;;;;;12.50;1.00;;;;;;5109020;28;20326;-66
2021/09/03 01:28:46;;;;;;;;;;;12.50;1.00;;;;;;5109098;28;19918;-66
2021/09/03 01:31:12;;;;;;;;;;;12.50;1.00;;;;;;5109241;28;20462;-66
2021/09/03 01:33:37;;;;;;;;;;;12.50;1.00;;;;;;5111891;28;20105;-66
2021/09/03 01:36:03;;;;;;;;;;;12.50;1.00;;;;;;5113129;28;19939;-66
2021/09/03 01:38:28;;;;;;;;;;;12.50;1.00;;;;;;5111973;28;19908;-66
2021/09/03 01:40:54;;;;;;;;;;;12.50;1.00;;;;;;5112368;28;19908;-66
2021/09/03 01:43:19;;;;;;;;;;;12.50;1.00;;;;;;5111353;28;19920;-66
2021/09/03 01:45:45;;;;;;;;;;;12.50;1.00;;;;;;5112353;28;20013;-64
2021/09/03 01:48:10;;;;;;;;;;;12.60;1.00;;;;;;5112314;28;20040;-64
2021/09/03 01:50:36;;;;;;;;;;;12.50;1.00;;;;;;5112520;28;19911;-64
2021/09/03 01:53:01;;;;;;;;;;;12.50;1.00;;;;;;5110521;28;19923;-64
2021/09/03 01:55:27;;;;;;;;;;;12.40;1.00;;;;;;5111935;28;19934;-64
2021/09/03 01:57:52;;;;;;;;;;;12.40;1.00;;;;;;5112329;28;19911;-64
2021/09/03 02:00:18;;;;;;;;;;;12.40;1.00;;;;;;5112714;28;19908;-64
2021/09/03 02:02:43;;;;;;;;;;;12.40;1.00;;;;;;5111012;28;20368;-64
2021/09/03 02:05:09;;;;;;;;;;;12.40;1.00;;;;;;5112002;28;19907;-63
2021/09/03 02:07:35;;;;;;;;;;;12.40;1.00;;;;;;5111940;28;20282;-64
2021/09/03 02:10:01;;;;;;;;;;;12.30;1.00;;;;;;5112120;28;19920;-65
2021/09/03 02:12:26;;;;;;;;;;;12.30;1.00;;;;;;5110992;28;20582;-65
2021/09/03 02:14:52;;;;;;;;;;;12.30;1.00;;;;;;5111789;28;19934;-65
2021/09/03 02:17:17;;;;;;;;;;;12.20;1.00;;;;;;5111649;28;20427;-65
2021/09/03 02:19:43;;;;;;;;;;;12.20;1.00;;;;;;5111997;28;19923;-65
2021/09/03 02:22:08;;;;;;;;;;;12.20;1.00;;;;;;5111065;28;19950;-65
2021/09/03 02:24:34;;;;;;;;;;;12.20;1.00;;;;;;5110337;28;19908;-65
2021/09/03 02:26:59;;;;;;;;;;;12.20;1.00;;;;;;5111552;28;19912;-65
2021/09/03 02:29:25;;;;;;;;;;;12.20;1.00;;;;;;5111407;28;19967;-65
2021/09/03 02:31:51;;;;;;;;;;;12.20;1.00;;;;;;5110856;28;20309;-65
2021/09/03 02:34:16;;;;;;;;;;;12.10;1.00;;;;;;5110741;27;19922;-65
2021/09/03 02:36:42;;;;;;;;;;;12.10;1.00;;;;;;5111816;28;19908;-65
2021/09/03 02:39:07;;;;;;;;;;;12.10;1.00;;;;;;5109808;28;19960;-65
2021/09/03 02:41:33;;;;;;;;;;;12.00;1.00;;;;;;5111188;28;20473;-65
2021/09/03 02:43:58;;;;;;;;;;;12.00;1.00;;;;;;5109398;28;20383;-65
2021/09/03 02:46:24;;;;;;;;;;;12.00;1.00;;;;;;5111399;28;19907;-65
2021/09/03 02:48:49;;;;;;;;;;;12.00;1.00;;;;;;5110910;28;20015;-65
2021/09/03 02:51:15;;;;;;;;;;;12.00;1.00;;;;;;5111334;28;20094;-65
2021/09/03 02:53:40;;;;;;;;;;;12.00;1.00;;;;;;5109528;28;19911;-65
2021/09/03 02:56:06;;;;;;;;;;;12.00;1.00;;;;;;5111523;28;19908;-65
2021/09/03 02:58:31;;;;;;;;;;;12.00;1.00;;;;;;5111257;28;19916;-65
2021/09/03 03:00:57;;;;;;;;;;;12.00;1.00;;;;;;5111728;28;19908;-65
2021/09/03 03:03:22;;;;;;;;;;;12.00;1.00;;;;;;5108789;28;19911;-65
2021/09/03 03:05:48;;;;;;;;;;;12.00;1.00;;;;;;5109929;28;19951;-64
2021/09/03 03:08:13;;;;;;;;;;;12.00;1.00;;;;;;5098398;28;20002;-65
2021/09/03 03:10:39;;;;;;;;;;;12.00;1.00;;;;;;5091486;28;20427;-65
2021/09/03 03:16:05;;;;;;;;;;;12.00;1.00;;;;;;4989874;28;20286;-65
2021/09/03 03:18:31;;;;;;;;;;;11.90;1.00;;;;;;5069282;28;19948;-64
2021/09/03 03:20:56;;;;;;;;;;;11.90;1.00;;;;;;5090938;28;19920;-64
2021/09/03 03:23:21;;;;;;;;;;;11.90;1.00;;;;;;5089483;28;20007;-64
2021/09/03 03:25:47;;;;;;;;;;;11.90;1.00;;;;;;5090171;28;20372;-64
2021/09/03 03:28:13;;;;;;;;;;;11.90;1.00;;;;;;5090863;28;20007;-65
2021/09/03 03:30:39;;;;;;;;;;;11.90;1.00;;;;;;5091502;28;20681;-64
2021/09/03 03:33:05;;;;;;;;;;;11.90;1.00;;;;;;5089498;28;19916;-65
2021/09/03 03:35:30;;;;;;;;;;;11.90;1.00;;;;;;5090924;28;19927;-65
2021/09/03 03:37:56;;;;;;;;;;;11.90;1.00;;;;;;5089580;28;19916;-64
2021/09/03 03:40:22;;;;;;;;;;;11.90;1.00;;;;;;5090107;28;19908;-65
2021/09/03 03:42:47;;;;;;;;;;;11.90;1.00;;;;;;5072207;28;19912;-64
2021/09/03 03:45:13;;;;;;;;;;;11.90;1.00;;;;;;5093958;28;19939;-64
2021/09/03 03:47:39;;;;;;;;;;;11.80;1.00;;;;;;5090620;28;19948;-64
2021/09/03 03:50:05;;;;;;;;;;;11.80;1.00;;;;;;5091087;28;20322;-64
2021/09/03 03:52:30;;;;;;;;;;;11.70;1.00;;;;;;5090003;28;19916;-64
2021/09/03 03:54:56;;;;;;;;;;;11.60;1.00;;;;;;5089543;28;19919;-64
2021/09/03 03:57:21;;;;;;;;;;;11.60;1.00;;;;;;5090061;28;19908;-64
2021/09/03 03:59:47;;;;;;;;;;;11.70;1.00;;;;;;5089987;28;19923;-65
2021/09/03 04:02:12;;;;;;;;;;;11.60;1.00;;;;;;5089128;28;19919;-63
2021/09/03 04:04:38;;;;;;;;;;;11.60;1.00;;;;;;5089887;28;20014;-63
2021/09/03 04:07:03;;;;;;;;;;;11.60;1.00;;;;;;5087278;28;19912;-64
2021/09/03 04:09:29;;;;;;;;;;;11.60;1.00;;;;;;5088600;28;20391;-63
2021/09/03 04:11:55;;;;;;;;;;;11.60;1.00;;;;;;5088906;28;19927;-63
2021/09/03 04:14:20;;;;;;;;;;;11.70;1.00;;;;;;5090201;28;19908;-64
2021/09/03 04:16:46;;;;;;;;;;;11.70;1.00;;;;;;5090231;28;20008;-64
2021/09/03 04:19:12;;;;;;;;;;;11.70;1.00;;;;;;5089802;28;19918;-64
2021/09/03 04:21:37;;;;;;;;;;;11.60;1.00;;;;;;5086644;28;20463;-64
2021/09/03 04:24:03;;;;;;;;;;;11.60;1.00;;;;;;5087749;28;19954;-65
2021/09/03 04:26:28;;;;;;;;;;;11.60;1.00;;;;;;5089625;28;19916;-65
2021/09/03 04:28:55;;;;;;;;;;;11.60;1.00;;;;;;5087167;28;19931;-64
2021/09/03 04:31:20;;;;;;;;;;;11.60;1.00;;;;;;5088975;28;19908;-65
2021/09/03 04:33:46;;;;;;;;;;;11.60;1.00;;;;;;5088184;28;19912;-64
2021/09/03 04:36:11;;;;;;;;;;;11.60;1.00;;;;;;5089710;28;19953;-63
2021/09/03 04:38:37;;;;;;;;;;;11.60;1.00;;;;;;5088884;28;19908;-64
2021/09/03 04:41:02;;;;;;;;;;;11.50;1.00;;;;;;5089183;28;19939;-65
2021/09/03 04:43:28;;;;;;;;;;;11.60;1.00;;;;;;5086470;28;19919;-65
2021/09/03 04:45:54;;;;;;;;;;;11.50;1.00;;;;;;5085949;28;19908;-64
2021/09/03 04:48:19;;;;;;;;;;;11.60;1.00;;;;;;5085641;28;19995;-65
2021/09/03 04:50:45;;;;;;;;;;;11.50;1.00;;;;;;5086035;28;20331;-65
2021/09/03 04:53:10;;;;;;;;;;;11.60;1.00;;;;;;5083910;28;20063;-65
2021/09/03 04:55:36;;;;;;;;;;;11.60;1.00;;;;;;5085383;28;19935;-65
2021/09/03 04:58:01;;;;;;;;;;;11.60;1.00;;;;;;5080454;28;19992;-66
2021/09/03 05:00:27;;;;;;;;;;;11.70;1.00;;;;;;5067160;28;19919;-66
2021/09/03 05:02:52;;;;;;;;;;;11.70;1.00;;;;;;5066292;28;19923;-66
2021/09/03 05:05:18;;;;;;;;;;;11.80;1.00;;;;;;5065472;28;19909;-66
2021/09/03 05:07:44;;;;;;;;;;;11.80;1.00;;;;;;5075768;28;20065;-66
2021/09/03 05:10:10;;;;;;;;;;;11.90;1.00;;;;;;5088944;28;19916;-66
2021/09/03 05:12:36;;;;;;;;;;;11.90;1.00;;;;;;5096765;28;20433;-65
2021/09/03 05:15:02;;;;;;;;;;;12.00;1.00;;;;;;5109879;28;19907;-65
2021/09/03 05:17:28;;;;;;;;;;;12.10;1.00;;;;;;5108861;28;19916;-64
2021/09/03 05:19:53;;;;;;;;;;;12.10;1.00;;;;;;5109701;28;19919;-64
2021/09/03 05:22:19;;;;;;;;;;;12.20;1.00;;;;;;5108654;28;20762;-65
2021/09/03 05:24:44;;;;;;;;;;;12.30;1.00;;;;;;5108736;28;19908;-64
2021/09/03 05:27:10;;;;;;;;;;;12.30;1.00;;;;;;5107384;28;19946;-64
2021/09/03 05:29:35;;;;;;;;;;;12.40;1.00;;;;;;5106387;28;20083;-65
2021/09/03 05:32:01;;;;;;;;;;;12.50;1.00;;;;;;5109654;28;19998;-65
2021/09/03 05:34:26;;;;;;;;;;;12.60;1.00;;;;;;5109429;28;19912;-65
2021/09/03 05:36:52;;;;;;;;;;;13.20;1.00;;;;;;5110254;28;20010;-65
2021/09/03 05:39:17;;;;;;;;;;;14.20;1.00;;;;;;5107967;28;20355;-65
2021/09/03 05:41:43;;;;;;;;;;;15.40;1.00;;;;;;5111546;28;19911;-66
2021/09/03 05:44:08;;;;;;;;;;;16.40;99.90;;;;;;5108647;28;19908;-66
2021/09/03 05:46:34;;;;;;;;;;;17.50;99.90;;;;;;5108897;28;20010;-66
2021/09/03 05:48:59;;;;;;;;;;;18.50;99.90;;;;;;5108474;28;19960;-65
2021/09/03 05:51:25;;;;;;;;;;;19.50;1.00;;;;;;5109099;28;19931;-64
2021/09/03 05:53:50;;;;;;;;;;;20.50;1.00;;;;;;5107944;28;20279;-66
2021/09/03 05:56:16;;;;;;;;;;;21.30;1.00;;;;;;5108835;28;19969;-64
2021/09/03 05:58:41;;;;;;;;;;;22.00;99.90;;;;;;5109038;28;19919;-64
2021/09/03 06:01:07;;;;;;;;;;;22.10;99.90;;;;;;5109210;28;19912;-64
2021/09/03 06:03:32;;;;;;;;;;;22.80;99.90;;;;;;5107025;28;19930;-65
2021/09/03 06:05:58;;;;;;;;;;;23.60;99.90;;;;;;5109129;28;20380;-65
2021/09/03 06:08:23;;;;;;;;;;;24.20;99.90;;;;;;5094381;28;19947;-65
2021/09/03 06:10:49;;;;;;;;;;;24.50;99.90;;;;;;5086975;28;19951;-66
2021/09/03 06:13:14;;;;;;;;;;;24.60;99.90;;;;;;5087416;28;19939;-65
2021/09/03 06:15:40;;;;;;;;;;;25.00;99.90;;;;;;5088691;28;19909;-65
2021/09/03 06:18:05;;;;;;;;;;;25.70;99.90;;;;;;5084749;28;19912;-65
2021/09/03 06:20:31;;;;;;;;;;;26.00;99.90;;;;;;5088406;28;19959;-66
2021/09/03 06:22:56;;;;;;;;;;;26.70;99.90;;;;;;5087912;28;19912;-66
2021/09/03 06:25:22;;;;;;;;;;;26.90;99.90;;;;;;5091003;28;20326;-66
2021/09/03 06:27:47;;;;;;;;;;;26.60;99.90;;;;;;5092024;28;19908;-67
2021/09/03 06:30:14;;;;;;;;;;;26.40;99.90;;;;;;5091996;28;19926;-73
2021/09/03 06:32:40;;;;;;;;;;;26.70;99.90;;;;;;5089590;28;20003;-66
2021/09/03 06:35:07;;;;;;;;;;;27.00;99.90;;;;;;5091431;28;19999;-66
2021/09/03 06:37:33;;;;;;;;;;;27.50;99.90;;;;;;5090514;28;19919;-66
2021/09/03 06:39:58;;;;;;;;;;;27.90;99.90;;;;;;5090370;28;19912;-66
2021/09/03 06:42:24;;;;;;;;;;;28.10;99.90;;;;;;5089896;28;19965;-66
2021/09/03 06:44:50;;;;;;;;;;;28.80;99.90;;;;;;5091230;28;20607;-69
2021/09/03 06:47:16;;;;;;;;;;;29.80;99.90;;;;;;5107696;28;19991;-68
2021/09/03 06:49:42;;;;;;;;;;;30.50;99.90;;;;;;5109526;28;19927;-68
2021/09/03 06:52:08;;;;;;;;;;;31.20;99.90;;;;;;5090042;28;19908;-68
2021/09/03 06:54:34;;;;;;;;;;;31.60;99.90;;;;;;5088809;28;19937;-67
2021/09/03 06:57:00;;;;;;;;;;;32.10;99.90;;;;;;5091016;28;19912;-68
2021/09/03 06:59:27;;;;;;;;;;;32.00;99.90;;;;;;5090318;28;19916;-68
2021/09/03 07:01:53;;;;;;;;;;;32.30;99.90;;;;;;5089534;28;19919;-68
2021/09/03 07:04:18;;;;;;;;;;;32.00;99.90;;;;;;5090078;28;19908;-68
2021/09/03 07:06:43;;;;;;;;;;;31.40;99.90;;;;;;5089981;28;19908;-68
2021/09/03 07:09:09;;;;;;;;;;;31.70;99.90;;;;;;5110301;28;19922;-69
2021/09/03 07:11:35;;;;;;;;;;;31.30;99.90;;;;;;5097440;28;20260;-69
2021/09/03 07:14:01;;;;;;;;;;;31.40;99.90;;;;;;5088978;28;19935;-68
2021/09/03 07:16:27;;;;;;;;;;;32.20;99.90;;;;;;5087517;28;19954;-68
2021/09/03 07:18:52;;;;;;;;;;;33.40;99.90;;;;;;5088816;28;20357;-68
2021/09/03 07:21:18;;;;;;;;;;;34.20;99.90;;;;;;5082345;28;19977;-68
2021/09/03 07:23:43;;;;;;;;;;;34.50;99.90;;;;;;5088142;28;19955;-67
2021/09/03 07:26:09;;;;;;;;;;;35.50;99.90;;;;;;5083598;28;20332;-67
2021/09/03 07:28:34;;;;;;;;;;;36.50;99.90;;;;;;5086511;28;19908;-69
2021/09/03 07:31:00;;;;;;;;;;;37.10;99.90;;;;;;5089566;28;19909;-69
2021/09/03 07:33:25;;;;;;;;;;;37.40;99.90;;;;;;5088965;28;19935;-70
2021/09/03 07:35:51;;;;;;;;;;;38.00;99.90;;;;;;5089747;28;19954;-67
2021/09/03 07:38:17;;;;;;;;;;;38.60;99.90;;;;;;5088741;28;19912;-67
2021/09/03 07:40:43;;;;;;;;;;;39.70;99.90;;;;;;5089390;28;19953;-67
2021/09/03 07:43:08;;;;;;;;;;;40.00;95.80;;;;;;5085322;28;20327;-69
2021/09/03 07:45:34;;;;;;;;;;;40.20;91.10;;;;;;5088166;28;20405;-69
2021/09/03 07:48:00;;;;;;;;;;;39.10;80.10;;;;;;5087494;28;19912;-68
2021/09/03 07:50:26;;;;;;;;;;;38.70;72.50;;;;;;5088609;28;19965;-69
2021/09/03 07:52:52;;;;;;;;;;;38.50;66.50;;;;;;5086141;28;20098;-67
2021/09/03 07:55:17;;;;;;;;;;;39.90;62.60;;;;;;5088078;28;20421;-69
2021/09/03 07:57:43;;;;;;;;;;;40.80;58.10;;;;;;5089613;28;20331;-69
2021/09/03 08:00:08;;;;;;;;;;;41.10;51.30;;;;;;5087877;28;19908;-67
2021/09/03 08:02:34;;;;;;;;;;;40.90;46.50;;;;;;5077283;28;19916;-68
2021/09/03 08:05:00;;;;;;;;;;;41.60;42.30;;;;;;5088204;28;19915;-68
2021/09/03 08:07:28;;;;;;;;;;;42.00;38.40;;;;;;5093042;28;20459;-68
2021/09/03 08:09:54;;;;;;;;;;;42.70;33.60;;;;;;5107773;28;20287;-69
2021/09/03 08:12:19;;;;;;;;;;;43.80;30.70;;;;;;5107596;28;19916;-68
2021/09/03 08:14:45;;;;;;;;;;;42.90;24.70;;;;;;5107661;28;19927;-69
2021/09/03 08:17:10;;;;;;;;;;;42.10;21.20;;;;;;5107960;28;19912;-68
2021/09/03 08:19:36;;;;;;;;;;;41.60;18.20;;;;;;5108316;28;19955;-68
2021/09/03 08:22:01;;;;;;;;;;;40.70;15.10;;;;;;5107598;28;19915;-73
2021/09/03 08:24:27;;;;;;;;;;;39.60;12.80;;;;;;5107172;28;19973;-68
2021/09/03 08:26:52;;;;;;;;;;;39.30;11.80;;;;;;5108200;28;19916;-67
2021/09/03 08:29:18;;;;;;;;;;;39.30;10.90;;;;;;5108247;28;19943;-69
2021/09/03 08:31:43;;;;;;;;;;;39.30;10.60;;;;;;5108421;28;19912;-71
2021/09/03 08:34:09;;;;;;;;;;;40.40;10.10;;;;;;5107221;28;19908;-68
2021/09/03 08:36:35;;;;;;;;;;;40.80;9.00;;;;;;5108734;28;20013;-68
2021/09/03 08:39:00;;;;;;;;;;;41.20;8.80;;;;;;5106299;28;20081;-68
2021/09/03 08:41:26;;;;;;;;;;;41.40;6.80;;;;;;5109446;28;20031;-69
2021/09/03 08:43:57;;;;;;;;;;;40.70;4.70;;;;;;5111160;28;19907;-68
2021/09/03 08:46:23;;;;;;;;;;;40.70;4.10;;;;;;5113635;28;19915;-69
2021/09/03 08:48:49;;;;;;;;;;;41.10;3.80;;;;;;5112317;28;19928;-68
2021/09/03 08:51:14;;;;;;;;;;;41.60;2.50;;;;;;5113481;28;19984;-68
2021/09/03 08:53:40;;;;;;;;;;;41.70;1.90;;;;;;5111679;28;19964;-69
2021/09/03 08:56:05;;;;;;;;;;;41.70;1.00;;;;;;5113025;28;19920;-68
2021/09/03 08:58:31;;;;;;;;;;;42.20;1.00;;;;;;5112857;28;19951;-68
2021/09/03 09:01:10;;;;;;;;;;;43.70;1.00;;;;;;5112969;28;19919;-68
2021/09/03 09:03:37;;;;;;;;;;;44.10;1.00;;;;;;5111654;28;20371;-69
2021/09/03 09:06:03;;;;;;;;;;;44.10;1.00;;;;;;5113555;28;19915;-69
2021/09/03 09:08:29;;;;;;;;;;;44.40;1.00;;;;;;5111711;27;20003;-69
2021/09/03 09:10:58;;;;;;;;;;;45.00;1.00;;;;;;5112216;28;20283;-69
2021/09/03 09:13:25;;;;;;;;;;;45.80;1.00;;;;;;5110669;28;19912;-69
2021/09/03 09:16:01;;;;;;;;;;;46.10;1.00;;;;;;5112921;28;19908;-67
2021/09/03 09:18:42;;;;;;;;;;;45.70;1.00;;;;;;5112770;28;19986;-68
2021/09/03 09:21:07;;;;;;;;;;;45.40;1.00;;;;;;5112823;28;19907;-68
2021/09/03 09:23:46;;;;;;;;;;;45.60;1.00;;;;;;5111019;28;20492;-69
2021/09/03 09:26:13;;;;;;;;;;;44.50;1.00;;;;;;5112573;28;19911;-68
2021/09/03 09:28:39;;;;;;;;;;;44.30;1.00;;;;;;5112063;28;19914;-68
2021/09/03 09:31:05;;;;;;;;;;;44.40;1.00;;;;;;5112220;28;20343;-68
2021/09/03 09:33:30;;;;;;;;;;;44.20;1.00;;;;;;5111538;28;19970;-67
2021/09/03 09:35:58;;;;;;;;;;;43.20;1.00;;;;;;5112095;28;19955;-68
2021/09/03 09:38:25;;;;;;;;;;;42.10;1.00;;;;;;5111716;27;19915;-67
2021/09/03 09:40:55;;;;;;;;;;;41.20;1.00;;;;;;5112587;28;19918;-67
2021/09/03 09:43:24;;;;;;;;;;;40.80;1.00;;;;;;5111224;28;19912;-67
2021/09/03 09:46:19;;;;;;;;;;;40.80;1.00;;;;;;5112640;28;19908;-68
2021/09/03 09:48:51;;;;;;;;;;;39.50;1.00;;;;;;5097863;28;19950;-67
2021/09/03 09:51:21;;;;;;;;;;;39.80;1.00;;;;;;5111865;28;19966;-68
2021/09/03 09:53:57;;;;;;;;;;;40.60;1.00;;;;;;5110793;28;19919;-68
2021/09/03 09:56:23;;;;;;;;;;;40.20;1.00;;;;;;5112156;28;19912;-68
2021/09/03 09:58:50;;;;;;;;;;;39.10;1.00;;;;;;5110873;28;20360;-68
2021/09/03 10:01:16;;;;;;;;;;;38.50;1.00;;;;;;5108860;28;19915;-68
2021/09/03 10:03:43;;;;;;;;;;;38.70;1.00;;;;;;5110132;28;20330;-66
2021/09/03 10:06:08;;;;;;;;;;;38.60;1.00;;;;;;5111903;28;19949;-65
2021/09/03 10:08:34;;;;;;;;;;;38.10;1.00;;;;;;5110689;28;19915;-64
2021/09/03 10:11:00;;;;;;;;;;;37.00;1.00;;;;;;5111338;28;19908;-65
2021/09/03 10:13:26;;;;;;;;;;;36.50;1.00;;;;;;5110461;27;19926;-65
2021/09/03 10:15:51;;;;;;;;;;;37.00;1.00;;;;;;5111799;28;19908;-64
2021/09/03 10:18:18;;;;;;;;;;;37.60;1.00;;;;;;5111097;28;19958;-65
2021/09/03 10:20:43;;;;;;;;;;;37.80;1.00;;;;;;5112283;28;19958;-66
2021/09/03 10:23:09;;;;;;;;;;;37.00;1.00;;;;;;5110395;28;19959;-67
2021/09/03 10:25:51;;;;;;;;;;;36.90;1.00;;;;;;5111537;28;19912;-66
2021/09/03 10:28:24;;;;;;;;;;;36.20;1.00;;;;;;5111195;28;19916;-65
2021/09/03 10:31:10;;;;;;;;;;;36.80;1.00;;;;;;5111464;28;20377;-66
2021/09/03 10:33:37;;;;;;;;;;;38.10;1.00;;;;;;5110123;28;19916;-66
2021/09/03 10:36:03;;;;;;;;;;;38.10;1.00;;;;;;5111566;28;20228;-65
2021/09/03 10:38:32;;;;;;;;;;;36.80;1.00;;;;;;5111055;28;19912;-65
2021/09/03 10:40:59;;;;;;;;;;;34.90;1.00;;;;;;5111768;28;19972;-65
2021/09/03 10:43:43;;;;;;;;;;;35.50;1.60;;;;;;5109688;28;19908;-65
2021/09/03 10:46:10;;;;;;;;;;;35.00;3.00;;;;;;5111768;28;19912;-65
2021/09/03 10:48:35;;;;;;;;;;;35.20;3.70;;;;;;5108935;28;19916;-66
2021/09/03 10:51:01;;;;;;;;;;;35.20;4.80;;;;;;5111073;28;19980;-66
2021/09/03 10:53:30;;;;;;;;;;;34.60;6.00;;;;;;5109721;28;20140;-66
2021/09/03 10:56:00;;;;;;;;;;;34.20;7.60;;;;;;5110854;28;19916;-64
2021/09/03 10:58:41;;;;;;;;;;;33.70;8.40;;;;;;5110268;28;19986;-65
2021/09/03 11:01:16;;;;;;;;;;;33.60;10.10;;;;;;5111235;28;20576;-66
2021/09/03 11:04:00;;;;;;;;;;;33.90;11.80;;;;;;5109558;28;19965;-65
2021/09/03 11:06:26;;;;;;;;;;;34.10;12.10;;;;;;5111205;28;19912;-65
2021/09/03 11:08:51;;;;;;;;;;;34.60;13.00;;;;;;5109893;28;19916;-66
2021/09/03 11:11:23;;;;;;;;;;;34.00;13.70;;;;;;5110496;28;19914;-66
2021/09/03 11:13:49;;;;;;;;;;;33.70;13.80;;;;;;5083338;28;19920;-66
2021/09/03 11:16:30;;;;;;;;;;;33.40;15.10;;;;;;5085047;28;20284;-65
2021/09/03 11:19:04;;;;;;;;;;;32.60;16.40;;;;;;5069538;28;20015;-65
2021/09/03 11:21:31;;;;;;;;;;;32.40;18.40;;;;;;5070374;28;19944;-66
2021/09/03 11:23:57;;;;;;;;;;;32.30;19.90;;;;;;5073809;28;19908;-65
2021/09/03 11:26:22;;;;;;;;;;;32.00;22.10;;;;;;5090035;28;20292;-66
2021/09/03 11:28:48;;;;;;;;;;;31.60;23.20;;;;;;5089614;28;20541;-65
2021/09/03 11:31:13;;;;;;;;;;;31.80;24.70;;;;;;5089034;28;19914;-65
2021/09/03 11:33:45;;;;;;;;;;;32.50;26.40;;;;;;5088604;28;20356;-66
2021/09/03 11:36:11;;;;;;;;;;;33.10;27.00;;;;;;5087480;28;19916;-64
2021/09/03 11:38:36;;;;;;;;;;;33.10;27.00;;;;;;5088608;28;19912;-64
2021/09/03 11:41:09;;;;;;;;;;;33.20;27.70;;;;;;5089686;28;19997;-65
2021/09/03 11:43:35;;;;;;;;;;;33.80;28.50;;;;;;5088969;28;19954;-65
2021/09/03 11:46:00;;;;;;;;;;;34.30;28.30;;;;;;5082408;28;19944;-65
2021/09/03 11:48:26;;;;;;;;;;;33.70;28.80;;;;;;5083314;28;20444;-64
2021/09/03 11:50:51;;;;;;;;;;;33.40;29.10;;;;;;5086463;28;19908;-65
2021/09/03 11:53:17;;;;;;;;;;;33.30;30.20;;;;;;5088487;28;19912;-65
2021/09/03 11:55:44;;;;;;;;;;;32.90;31.40;;;;;;5091268;28;19923;-64
2021/09/03 11:58:11;;;;;;;;;;;32.50;32.30;;;;;;5088496;28;19916;-64
2021/09/03 12:00:47;;;;;;;;;;;32.00;34.30;;;;;;5089413;28;20007;-65
2021/09/03 12:03:14;;;;;;;;;;;32.00;35.80;;;;;;5087491;28;20320;-65
2021/09/03 12:05:41;;;;;;;;;;;31.70;36.50;;;;;;5089535;28;19920;-66
2021/09/03 12:08:14;;;;;;;;;;;31.90;38.10;;;;;;5099409;28;19926;-67
2021/09/03 12:10:39;;;;;;;;;;;32.00;39.50;;;;;;5109126;28;19998;-65
2021/09/03 12:13:06;;;;;;;;;;;32.10;40.20;;;;;;5108626;28;20007;-65
2021/09/03 12:15:32;;;;;;;;;;;31.60;40.30;;;;;;5109246;28;19915;-65
2021/09/03 12:17:57;;;;;;;;;;;30.90;41.60;;;;;;5104619;28;19980;-65
2021/09/03 12:20:23;;;;;;;;;;;30.60;44.00;;;;;;5108817;28;20388;-65
2021/09/03 12:22:50;;;;;;;;;;;30.10;44.60;;;;;;5100014;28;19957;-66
2021/09/03 12:25:15;;;;;;;;;;;30.00;46.90;;;;;;5107779;28;19916;-65
2021/09/03 12:27:41;;;;;;;;;;;30.30;49.10;;;;;;5109608;28;19941;-65
2021/09/03 12:30:10;;;;;;;;;;;30.00;49.40;;;;;;5109463;28;20348;-65
2021/09/03 12:32:36;;;;;;;;;;;29.40;48.80;;;;;;5108027;28;19963;-67
2021/09/03 12:35:01;;;;;;;;;;;29.00;50.70;;;;;;5109405;28;19939;-68
2021/09/03 12:37:27;;;;;;;;;;;28.60;52.00;;;;;;5109071;28;20422;-69
2021/09/03 12:39:52;;;;;;;;;;;28.20;52.40;;;;;;5108745;28;19908;-65
2021/09/03 12:42:18;;;;;;;;;;;28.30;54.40;;;;;;5108629;28;19908;-65
2021/09/03 12:44:44;;;;;;;;;;;28.80;56.60;;;;;;5109381;28;19912;-65
2021/09/03 12:47:09;;;;;;;;;;;29.40;57.50;;;;;;5109308;28;19908;-67
2021/09/03 12:49:36;;;;;;;;;;;29.90;58.80;;;;;;5109138;28;19923;-65
2021/09/03 12:52:06;;;;;;;;;;;30.20;60.10;;;;;;5108351;28;19916;-66
2021/09/03 12:54:33;;;;;;;;;;;30.30;62.60;;;;;;5108426;28;20249;-65
2021/09/03 12:56:59;;;;;;;;;;;30.30;62.30;;;;;;5109276;28;20573;-66
2021/09/03 12:59:25;;;;;;;;;;;29.70;61.60;;;;;;5108785;28;19916;-65
2021/09/03 13:01:51;;;;;;;;;;;28.60;62.00;;;;;;5108492;28;20379;-68
2021/09/03 13:04:21;;;;;;;;;;;27.80;64.40;;;;;;5107925;28;20023;-67
2021/09/03 13:06:48;;;;;;;;;;;27.10;66.20;;;;;;5109561;28;20689;-67
2021/09/03 13:09:18;;;;;;;;;;;26.40;69.40;;;;;;5108526;28;20293;-68
2021/09/03 13:11:44;;;;;;;;;;;26.20;73.90;;;;;;5108965;28;20425;-71
2021/09/03 13:14:09;;;;;;;;;;;26.00;77.80;;;;;;5108456;28;19965;-70
2021/09/03 13:16:38;;;;;;;;;;;25.50;81.30;;;;;;5109858;28;19919;-68
2021/09/03 13:19:04;;;;;;;;;;;25.40;87.00;;;;;;5108910;28;19968;-67
2021/09/03 13:21:30;;;;;;;;;;;25.10;99.10;;;;;;5110714;28;20296;-69
2021/09/03 13:23:55;;;;;;;;;;;25.00;92.40;;;;;;5108298;28;19912;-70
2021/09/03 13:26:21;;;;;;;;;;;25.00;95.00;;;;;;5109609;28;19912;-69
2021/09/03 13:28:46;;;;;;;;;;;25.00;96.50;;;;;;5112086;28;19915;-67
2021/09/03 13:31:19;;;;;;;;;;;24.80;97.60;;;;;;5113312;28;20002;-69
2021/09/03 13:33:44;;;;;;;;;;;24.90;99.10;;;;;;5112289;28;19958;-69
2021/09/03 13:36:10;;;;;;;;;;;25.00;99.90;;;;;;5113117;28;20337;-70
2021/09/03 13:38:36;;;;;;;;;;;25.10;99.90;;;;;;5112097;28;19924;-71
2021/09/03 13:41:02;;;;;;;;;;;25.10;99.90;;;;;;5112552;28;20370;-70
2021/09/03 13:43:27;;;;;;;;;;;24.80;99.90;;;;;;5112219;28;20003;-70
2021/09/03 13:45:53;;;;;;;;;;;24.80;99.90;;;;;;5112573;28;19918;-70
2021/09/03 13:48:18;;;;;;;;;;;24.70;99.90;;;;;;5112243;28;20272;-69
2021/09/03 13:50:44;;;;;;;;;;;24.70;99.90;;;;;;5112947;28;19962;-69
2021/09/03 13:53:09;;;;;;;;;;;24.70;99.90;;;;;;5110718;28;20325;-68
2021/09/03 13:55:35;;;;;;;;;;;24.90;99.90;;;;;;5112407;28;19931;-68
2021/09/03 13:58:02;;;;;;;;;;;24.80;99.90;;;;;;5112724;28;19915;-69
2021/09/03 14:00:27;;;;;;;;;;;24.80;99.90;;;;;;5111908;28;19952;-69
2021/09/03 14:02:53;;;;;;;;;;;24.80;99.90;;;;;;5110766;28;20002;-69
2021/09/03 14:05:18;;;;;;;;;;;24.80;99.90;;;;;;5112868;28;19912;-71
2021/09/03 14:07:44;;;;;;;;;;;24.90;99.90;;;;;;5111800;28;20473;-70
2021/09/03 14:10:10;;;;;;;;;;;24.80;99.90;;;;;;5111716;28;20379;-69
2021/09/03 14:12:35;;;;;;;;;;;24.50;99.90;;;;;;5110744;27;20032;-69
2021/09/03 14:15:00;;;;;;;;;;;24.30;99.90;;;;;;5111913;28;19908;-69
2021/09/03 14:17:26;;;;;;;;;;;24.30;99.90;;;;;;5111705;28;20769;-68
2021/09/03 14:19:51;;;;;;;;;;;24.40;99.90;;;;;;5112497;28;19923;-71
2021/09/03 14:22:17;;;;;;;;;;;24.50;99.90;;;;;;5110925;28;19912;-71